sensor_id;sensor_type;location;lat;lon;timestamp;pressure;altitude;pressure_sealevel;temperature;humidity
15294;BME280;7748;52.474;13.454;2022-09-09T00:00:13;100834.06;;;15.71;100.00
15294;BME280;7748;52.474;13.454;2022-09-09T00:02:45;100834.81;;;15.65;100.00
15294;BME280;7748;52.474;13.454;2022-09-09T00:05:20;100833.06;;;15.64;100.00
15294;BME280;7748;52.474;13.454;2022-09-09T00:07:54;100840.09;;;15.68;100.00
15294;BME280;7748;52.474;13.454;2022-09-09T00:10:28;100838.41;;;15.70;100.00
15294;BME280;7748;52.474;13.454;2022-09-09T00:13:04;100843.56;;;15.64;100.00
15294;BME280;7748;52.474;13.454;2022-09-09T00:15:38;100837.31;;;15.56;100.00
15294;BME280;7748;52.474;13.454;2022-09-09T00:18:14;100848.69;;;15.58;100.00
15294;BME280;7748;52.474;13.454;2022-09-09T00:20:48;100842.56;;;15.59;100.00
15294;BME280;7748;52.474;13.454;2022-09-09T00:23:24;100837.22;;;15.51;100.00
15294;BME280;7748;52.474;13.454;2022-09-09T00:26:02;100831.22;;;15.58;100.00
15294;BME280;7748;52.474;13.454;2022-09-09T00:28:36;100828.63;;;15.60;100.00
15294;BME280;7748;52.474;13.454;2022-09-09T00:31:12;100832.94;;;15.55;100.00
15294;BME280;7748;52.474;13.454;2022-09-09T00:33:42;100831.88;;;15.45;100.00
15294;BME280;7748;52.474;13.454;2022-09-09T00:36:13;100829.19;;;15.41;100.00
15294;BME280;7748;52.474;13.454;2022-09-09T00:38:45;100831.06;;;15.46;100.00
15294;BME280;7748;52.474;13.454;2022-09-09T00:41:21;100831.00;;;15.45;100.00
15294;BME280;7748;52.474;13.454;2022-09-09T00:43:56;100833.66;;;15.48;100.00
15294;BME280;7748;52.474;13.454;2022-09-09T00:46:41;100840.56;;;15.41;100.00
15294;BME280;7748;52.474;13.454;2022-09-09T00:49:22;100828.19;;;15.29;100.00
15294;BME280;7748;52.474;13.454;2022-09-09T00:52:00;100836.06;;;15.32;100.00
15294;BME280;7748;52.474;13.454;2022-09-09T00:54:42;100831.66;;;15.30;100.00
15294;BME280;7748;52.474;13.454;2022-09-09T00:57:23;100827.16;;;15.21;100.00
15294;BME280;7748;52.474;13.454;2022-09-09T00:59:59;100834.94;;;15.17;100.00
15294;BME280;7748;52.474;13.454;2022-09-09T01:02:39;100832.44;;;15.24;100.00
15294;BME280;7748;52.474;13.454;2022-09-09T01:05:20;100835.97;;;15.26;100.00
15294;BME280;7748;52.474;13.454;2022-09-09T01:07:51;100828.03;;;15.20;100.00
15294;BME280;7748;52.474;13.454;2022-09-09T01:10:30;100841.16;;;15.23;100.00
15294;BME280;7748;52.474;13.454;2022-09-09T01:13:11;100847.22;;;15.22;100.00
15294;BME280;7748;52.474;13.454;2022-09-09T01:15:44;100848.16;;;15.26;100.00
15294;BME280;7748;52.474;13.454;2022-09-09T01:18:15;100847.09;;;15.14;100.00
15294;BME280;7748;52.474;13.454;2022-09-09T01:20:51;100841.66;;;15.04;100.00
15294;BME280;7748;52.474;13.454;2022-09-09T01:23:40;100840.03;;;15.10;100.00
15294;BME280;7748;52.474;13.454;2022-09-09T01:26:21;100836.59;;;15.11;100.00
15294;BME280;7748;52.474;13.454;2022-09-09T01:28:52;100838.91;;;14.94;100.00
15294;BME280;7748;52.474;13.454;2022-09-09T01:31:26;100846.06;;;15.05;100.00
15294;BME280;7748;52.474;13.454;2022-09-09T01:33:55;100839.00;;;15.01;100.00
15294;BME280;7748;52.474;13.454;2022-09-09T01:36:27;100844.19;;;14.98;100.00
15294;BME280;7748;52.474;13.454;2022-09-09T01:38:59;100843.31;;;14.97;100.00
15294;BME280;7748;52.474;13.454;2022-09-09T01:41:28;100840.88;;;15.08;100.00
15294;BME280;7748;52.474;13.454;2022-09-09T01:43:56;100838.19;;;15.03;100.00
15294;BME280;7748;52.474;13.454;2022-09-09T01:46:24;100831.94;;;14.97;100.00
15294;BME280;7748;52.474;13.454;2022-09-09T01:48:53;100825.69;;;14.85;100.00
15294;BME280;7748;52.474;13.454;2022-09-09T01:51:22;100836.34;;;14.99;100.00
15294;BME280;7748;52.474;13.454;2022-09-09T01:53:50;100822.31;;;14.92;100.00
15294;BME280;7748;52.474;13.454;2022-09-09T01:56:26;100827.47;;;14.89;100.00
15294;BME280;7748;52.474;13.454;2022-09-09T01:59:05;100827.34;;;14.82;100.00
15294;BME280;7748;52.474;13.454;2022-09-09T02:01:45;100832.63;;;14.85;100.00
15294;BME280;7748;52.474;13.454;2022-09-09T02:04:31;58734.78;;;-145.20;100.00
15294;BME280;7748;52.474;13.454;2022-09-09T02:07:01;58734.78;;;-145.20;100.00
15294;BME280;7748;52.474;13.454;2022-09-09T02:09:30;100829.25;;;14.90;100.00
15294;BME280;7748;52.474;13.454;2022-09-09T02:12:02;100835.31;;;14.89;100.00
15294;BME280;7748;52.474;13.454;2022-09-09T02:14:38;100838.75;;;14.85;100.00
15294;BME280;7748;52.474;13.454;2022-09-09T02:17:09;100844.91;;;14.89;100.00
15294;BME280;7748;52.474;13.454;2022-09-09T02:19:41;100837.00;;;14.86;100.00
15294;BME280;7748;52.474;13.454;2022-09-09T02:22:12;100840.13;;;14.65;100.00
15294;BME280;7748;52.474;13.454;2022-09-09T02:24:40;100837.50;;;14.66;100.00
15294;BME280;7748;52.474;13.454;2022-09-09T02:27:09;100831.41;;;14.66;100.00
15294;BME280;7748;52.474;13.454;2022-09-09T02:29:41;100832.31;;;14.68;100.00
15294;BME280;7748;52.474;13.454;2022-09-09T02:32:14;100839.97;;;14.59;100.00
15294;BME280;7748;52.474;13.454;2022-09-09T02:34:45;100832.97;;;14.56;100.00
15294;BME280;7748;52.474;13.454;2022-09-09T02:37:17;100835.47;;;14.51;100.00
15294;BME280;7748;52.474;13.454;2022-09-09T02:39:46;100839.44;;;14.34;100.00
15294;BME280;7748;52.474;13.454;2022-09-09T02:42:14;100834.50;;;14.46;100.00
15294;BME280;7748;52.474;13.454;2022-09-09T02:44:44;100834.72;;;14.56;100.00
15294;BME280;7748;52.474;13.454;2022-09-09T02:47:24;100829.19;;;14.43;100.00
15294;BME280;7748;52.474;13.454;2022-09-09T02:50:03;100834.31;;;14.37;100.00
15294;BME280;7748;52.474;13.454;2022-09-09T02:52:38;100833.63;;;14.46;100.00
15294;BME280;7748;52.474;13.454;2022-09-09T02:55:23;100832.66;;;14.42;100.00
15294;BME280;7748;52.474;13.454;2022-09-09T02:57:53;100829.34;;;14.52;100.00
15294;BME280;7748;52.474;13.454;2022-09-09T03:00:26;100824.03;;;14.46;100.00
15294;BME280;7748;52.474;13.454;2022-09-09T03:02:55;100828.44;;;14.49;100.00
15294;BME280;7748;52.474;13.454;2022-09-09T03:05:23;100836.25;;;14.47;100.00
15294;BME280;7748;52.474;13.454;2022-09-09T03:07:51;100843.47;;;14.58;100.00
15294;BME280;7748;52.474;13.454;2022-09-09T03:10:19;100844.19;;;14.52;100.00
15294;BME280;7748;52.474;13.454;2022-09-09T03:12:47;100841.56;;;14.52;100.00
15294;BME280;7748;52.474;13.454;2022-09-09T03:15:15;100851.94;;;14.47;100.00
15294;BME280;7748;52.474;13.454;2022-09-09T03:17:44;100848.41;;;14.45;100.00
15294;BME280;7748;52.474;13.454;2022-09-09T03:20:11;100850.22;;;14.49;100.00
15294;BME280;7748;52.474;13.454;2022-09-09T03:22:39;100853.75;;;14.51;100.00
15294;BME280;7748;52.474;13.454;2022-09-09T03:25:07;100857.38;;;14.57;100.00
15294;BME280;7748;52.474;13.454;2022-09-09T03:27:35;100850.34;;;14.54;100.00
15294;BME280;7748;52.474;13.454;2022-09-09T03:30:03;100860.03;;;14.58;100.00
15294;BME280;7748;52.474;13.454;2022-09-09T03:32:31;100850.19;;;14.46;100.00
15294;BME280;7748;52.474;13.454;2022-09-09T03:35:00;100844.75;;;14.37;100.00
15294;BME280;7748;52.474;13.454;2022-09-09T03:37:28;100853.63;;;14.45;100.00
15294;BME280;7748;52.474;13.454;2022-09-09T03:39:56;100848.22;;;14.36;100.00
15294;BME280;7748;52.474;13.454;2022-09-09T03:42:24;100844.38;;;14.19;100.00
15294;BME280;7748;52.474;13.454;2022-09-09T03:44:51;100844.53;;;14.26;100.00
15294;BME280;7748;52.474;13.454;2022-09-09T03:47:20;100850.63;;;14.25;100.00
15294;BME280;7748;52.474;13.454;2022-09-09T03:49:48;100849.81;;;14.28;100.00
15294;BME280;7748;52.474;13.454;2022-09-09T03:52:17;100852.22;;;14.19;100.00
15294;BME280;7748;52.474;13.454;2022-09-09T03:54:49;100846.28;;;14.26;100.00
15294;BME280;7748;52.474;13.454;2022-09-09T03:57:17;100847.09;;;14.25;100.00
15294;BME280;7748;52.474;13.454;2022-09-09T03:59:45;100843.50;;;14.18;100.00
15294;BME280;7748;52.474;13.454;2022-09-09T04:02:13;100843.50;;;14.18;100.00
15294;BME280;7748;52.474;13.454;2022-09-09T04:04:42;100837.31;;;14.15;100.00
15294;BME280;7748;52.474;13.454;2022-09-09T04:07:09;100838.28;;;14.20;100.00
15294;BME280;7748;52.474;13.454;2022-09-09T04:09:39;100839.16;;;14.19;100.00
15294;BME280;7748;52.474;13.454;2022-09-09T04:12:07;100837.31;;;14.15;100.00
15294;BME280;7748;52.474;13.454;2022-09-09T04:14:35;100834.03;;;14.25;100.00
15294;BME280;7748;52.474;13.454;2022-09-09T04:17:02;100838.38;;;14.24;100.00
15294;BME280;7748;52.474;13.454;2022-09-09T04:19:32;100841.13;;;14.30;100.00
15294;BME280;7748;52.474;13.454;2022-09-09T04:22:00;58734.78;;;-145.20;100.00
15294;BME280;7748;52.474;13.454;2022-09-09T04:24:28;58734.78;;;-145.20;100.00
15294;BME280;7748;52.474;13.454;2022-09-09T04:26:57;58734.78;;;-145.20;100.00
15294;BME280;7748;52.474;13.454;2022-09-09T04:29:25;58734.78;;;-145.20;100.00
15294;BME280;7748;52.474;13.454;2022-09-09T04:31:52;58734.78;;;-145.20;100.00
15294;BME280;7748;52.474;13.454;2022-09-09T04:34:20;58734.78;;;-145.20;100.00
15294;BME280;7748;52.474;13.454;2022-09-09T04:36:48;58734.78;;;-145.20;100.00
15294;BME280;7748;52.474;13.454;2022-09-09T04:39:16;58734.78;;;-145.20;100.00
15294;BME280;7748;52.474;13.454;2022-09-09T04:41:44;100853.16;;;14.22;100.00
15294;BME280;7748;52.474;13.454;2022-09-09T04:44:14;100855.84;;;14.25;100.00
15294;BME280;7748;52.474;13.454;2022-09-09T04:46:42;100851.34;;;14.20;100.00
15294;BME280;7748;52.474;13.454;2022-09-09T04:49:10;100855.75;;;14.22;100.00
15294;BME280;7748;52.474;13.454;2022-09-09T04:51:40;100857.75;;;14.32;100.00
15294;BME280;7748;52.474;13.454;2022-09-09T04:54:09;100856.97;;;14.38;100.00
15294;BME280;7748;52.474;13.454;2022-09-09T04:56:38;100862.34;;;14.44;100.00
15294;BME280;7748;52.474;13.454;2022-09-09T04:59:05;100864.03;;;14.42;100.00
15294;BME280;7748;52.474;13.454;2022-09-09T05:01:34;100867.69;;;14.50;100.00
15294;BME280;7748;52.474;13.454;2022-09-09T05:04:03;100864.22;;;14.51;100.00
15294;BME280;7748;52.474;13.454;2022-09-09T05:06:31;100867.84;;;14.57;100.00
15294;BME280;7748;52.474;13.454;2022-09-09T05:08:59;100864.44;;;14.61;100.00
15294;BME280;7748;52.474;13.454;2022-09-09T05:11:28;100863.75;;;14.69;100.00
15294;BME280;7748;52.474;13.454;2022-09-09T05:13:56;100866.19;;;14.62;100.00
15294;BME280;7748;52.474;13.454;2022-09-09T05:16:24;100863.81;;;14.74;100.00
15294;BME280;7748;52.474;13.454;2022-09-09T05:18:54;100861.03;;;14.65;100.00
15294;BME280;7748;52.474;13.454;2022-09-09T05:21:23;100866.72;;;14.89;100.00
15294;BME280;7748;52.474;13.454;2022-09-09T05:23:52;100858.91;;;14.91;100.00
15294;BME280;7748;52.474;13.454;2022-09-09T05:26:21;100849.63;;;15.10;100.00
15294;BME280;7748;52.474;13.454;2022-09-09T05:28:50;100850.72;;;15.21;100.00
15294;BME280;7748;52.474;13.454;2022-09-09T05:31:18;100850.63;;;15.17;100.00
15294;BME280;7748;52.474;13.454;2022-09-09T05:33:47;100844.75;;;15.31;100.00
15294;BME280;7748;52.474;13.454;2022-09-09T05:36:18;100843.28;;;15.46;100.00
15294;BME280;7748;52.474;13.454;2022-09-09T05:38:47;100836.03;;;15.29;100.00
15294;BME280;7748;52.474;13.454;2022-09-09T05:41:16;100832.94;;;15.55;100.00
15294;BME280;7748;52.474;13.454;2022-09-09T05:43:44;100821.75;;;15.68;100.00
15294;BME280;7748;52.474;13.454;2022-09-09T05:46:14;58734.78;;;-145.20;100.00
15294;BME280;7748;52.474;13.454;2022-09-09T05:48:43;58734.78;;;-145.20;100.00
15294;BME280;7748;52.474;13.454;2022-09-09T05:51:14;58734.78;;;-145.20;100.00
15294;BME280;7748;52.474;13.454;2022-09-09T05:53:45;58734.78;;;-145.20;100.00
15294;BME280;7748;52.474;13.454;2022-09-09T05:56:15;58734.78;;;-145.20;100.00
15294;BME280;7748;52.474;13.454;2022-09-09T05:58:44;58734.78;;;-145.20;100.00
15294;BME280;7748;52.474;13.454;2022-09-09T06:01:14;58734.78;;;-145.20;100.00
15294;BME280;7748;52.474;13.454;2022-09-09T06:03:44;58734.78;;;-145.20;100.00
15294;BME280;7748;52.474;13.454;2022-09-09T06:06:13;58734.78;;;-145.20;100.00
15294;BME280;7748;52.474;13.454;2022-09-09T06:08:43;58734.78;;;-145.20;100.00
15294;BME280;7748;52.474;13.454;2022-09-09T06:11:15;58734.78;;;-145.20;100.00
15294;BME280;7748;52.474;13.454;2022-09-09T06:13:43;58734.78;;;-145.20;100.00
15294;BME280;7748;52.474;13.454;2022-09-09T06:16:14;58734.78;;;-145.20;100.00
15294;BME280;7748;52.474;13.454;2022-09-09T06:18:42;58734.78;;;-145.20;100.00
15294;BME280;7748;52.474;13.454;2022-09-09T06:21:16;58734.78;;;-145.20;100.00
15294;BME280;7748;52.474;13.454;2022-09-09T06:23:45;58734.78;;;-145.20;100.00
15294;BME280;7748;52.474;13.454;2022-09-09T06:26:16;58734.78;;;-145.20;100.00
15294;BME280;7748;52.474;13.454;2022-09-09T06:28:44;58734.78;;;-145.20;100.00
15294;BME280;7748;52.474;13.454;2022-09-09T06:31:14;58734.78;;;-145.20;100.00
15294;BME280;7748;52.474;13.454;2022-09-09T06:33:43;58734.78;;;-145.20;100.00
15294;BME280;7748;52.474;13.454;2022-09-09T06:36:13;58734.78;;;-145.20;100.00
15294;BME280;7748;52.474;13.454;2022-09-09T06:38:42;58734.78;;;-145.20;100.00
15294;BME280;7748;52.474;13.454;2022-09-09T06:41:11;58734.78;;;-145.20;100.00
15294;BME280;7748;52.474;13.454;2022-09-09T06:43:41;58734.78;;;-145.20;100.00
15294;BME280;7748;52.474;13.454;2022-09-09T06:46:10;58734.78;;;-145.20;100.00
15294;BME280;7748;52.474;13.454;2022-09-09T06:48:39;58734.78;;;-145.20;100.00
15294;BME280;7748;52.474;13.454;2022-09-09T06:51:09;58734.78;;;-145.20;100.00
15294;BME280;7748;52.474;13.454;2022-09-09T06:53:39;58734.78;;;-145.20;100.00
15294;BME280;7748;52.474;13.454;2022-09-09T06:56:19;58734.78;;;-145.20;100.00
15294;BME280;7748;52.474;13.454;2022-09-09T06:58:50;58734.78;;;-145.20;100.00
15294;BME280;7748;52.474;13.454;2022-09-09T07:01:20;58734.78;;;-145.20;100.00
15294;BME280;7748;52.474;13.454;2022-09-09T07:03:50;58734.78;;;-145.20;100.00
15294;BME280;7748;52.474;13.454;2022-09-09T07:06:20;58734.78;;;-145.20;100.00
15294;BME280;7748;52.474;13.454;2022-09-09T07:08:49;58734.78;;;-145.20;100.00
15294;BME280;7748;52.474;13.454;2022-09-09T07:11:23;58734.78;;;-145.20;100.00
15294;BME280;7748;52.474;13.454;2022-09-09T07:13:54;58734.78;;;-145.20;100.00
15294;BME280;7748;52.474;13.454;2022-09-09T07:16:23;58734.78;;;-145.20;100.00
15294;BME280;7748;52.474;13.454;2022-09-09T07:18:51;58734.78;;;-145.20;100.00
15294;BME280;7748;52.474;13.454;2022-09-09T07:21:19;58734.78;;;-145.20;100.00
15294;BME280;7748;52.474;13.454;2022-09-09T07:23:48;58734.78;;;-145.20;100.00
15294;BME280;7748;52.474;13.454;2022-09-09T07:26:18;58734.78;;;-145.20;100.00
15294;BME280;7748;52.474;13.454;2022-09-09T07:28:47;58734.78;;;-145.20;100.00
15294;BME280;7748;52.474;13.454;2022-09-09T07:31:18;58734.78;;;-145.20;100.00
15294;BME280;7748;52.474;13.454;2022-09-09T07:33:47;58734.78;;;-145.20;100.00
15294;BME280;7748;52.474;13.454;2022-09-09T07:36:16;58734.78;;;-145.20;100.00
15294;BME280;7748;52.474;13.454;2022-09-09T07:38:45;58734.78;;;-145.20;100.00
15294;BME280;7748;52.474;13.454;2022-09-09T07:41:15;58734.78;;;-145.20;100.00
15294;BME280;7748;52.474;13.454;2022-09-09T07:43:45;58734.78;;;-145.20;100.00
15294;BME280;7748;52.474;13.454;2022-09-09T07:46:16;58734.78;;;-145.20;100.00
15294;BME280;7748;52.474;13.454;2022-09-09T07:48:46;58734.78;;;-145.20;100.00
15294;BME280;7748;52.474;13.454;2022-09-09T07:51:22;58734.78;;;-145.20;100.00
15294;BME280;7748;52.474;13.454;2022-09-09T07:53:52;58734.78;;;-145.20;100.00
15294;BME280;7748;52.474;13.454;2022-09-09T07:56:21;58734.78;;;-145.20;100.00
15294;BME280;7748;52.474;13.454;2022-09-09T07:58:50;58734.78;;;-145.20;100.00
15294;BME280;7748;52.474;13.454;2022-09-09T08:01:21;58734.78;;;-145.20;100.00
15294;BME280;7748;52.474;13.454;2022-09-09T08:03:53;58734.78;;;-145.20;100.00
15294;BME280;7748;52.474;13.454;2022-09-09T08:06:22;58734.78;;;-145.20;100.00
15294;BME280;7748;52.474;13.454;2022-09-09T08:08:51;58734.78;;;-145.20;100.00
15294;BME280;7748;52.474;13.454;2022-09-09T08:11:48;58734.78;;;-145.20;100.00
15294;BME280;7748;52.474;13.454;2022-09-09T08:14:16;58734.78;;;-145.20;100.00
15294;BME280;7748;52.474;13.454;2022-09-09T08:16:47;58734.78;;;-145.20;100.00
15294;BME280;7748;52.474;13.454;2022-09-09T08:19:15;58734.78;;;-145.20;100.00
15294;BME280;7748;52.474;13.454;2022-09-09T08:21:44;58734.78;;;-145.20;100.00
15294;BME280;7748;52.474;13.454;2022-09-09T08:24:12;58734.78;;;-145.20;100.00
15294;BME280;7748;52.474;13.454;2022-09-09T08:26:42;58734.78;;;-145.20;100.00
15294;BME280;7748;52.474;13.454;2022-09-09T08:29:12;58734.78;;;-145.20;100.00
15294;BME280;7748;52.474;13.454;2022-09-09T08:31:42;58734.78;;;-145.20;100.00
15294;BME280;7748;52.474;13.454;2022-09-09T08:34:11;58734.78;;;-145.20;100.00
15294;BME280;7748;52.474;13.454;2022-09-09T08:36:40;58734.78;;;-145.20;100.00
15294;BME280;7748;52.474;13.454;2022-09-09T08:39:10;58734.78;;;-145.20;100.00
15294;BME280;7748;52.474;13.454;2022-09-09T08:41:57;58734.78;;;-145.20;100.00
15294;BME280;7748;52.474;13.454;2022-09-09T08:44:44;58734.78;;;-145.20;100.00
15294;BME280;7748;52.474;13.454;2022-09-09T08:47:19;58734.78;;;-145.20;100.00
15294;BME280;7748;52.474;13.454;2022-09-09T08:50:08;58734.78;;;-145.20;100.00
15294;BME280;7748;52.474;13.454;2022-09-09T08:52:43;58734.78;;;-145.20;100.00
15294;BME280;7748;52.474;13.454;2022-09-09T08:55:23;58734.78;;;-145.20;100.00
15294;BME280;7748;52.474;13.454;2022-09-09T08:57:54;58734.78;;;-145.20;100.00
15294;BME280;7748;52.474;13.454;2022-09-09T09:00:28;58734.78;;;-145.20;100.00
15294;BME280;7748;52.474;13.454;2022-09-09T09:03:06;58734.78;;;-145.20;100.00
15294;BME280;7748;52.474;13.454;2022-09-09T09:05:43;58734.78;;;-145.20;100.00
15294;BME280;7748;52.474;13.454;2022-09-09T09:08:21;58734.78;;;-145.20;100.00
15294;BME280;7748;52.474;13.454;2022-09-09T09:10:57;58734.78;;;-145.20;100.00
15294;BME280;7748;52.474;13.454;2022-09-09T09:13:32;58734.78;;;-145.20;100.00
15294;BME280;7748;52.474;13.454;2022-09-09T09:16:15;58734.78;;;-145.20;100.00
15294;BME280;7748;52.474;13.454;2022-09-09T09:18:47;58734.78;;;-145.20;100.00
15294;BME280;7748;52.474;13.454;2022-09-09T09:21:19;58734.78;;;-145.20;100.00
15294;BME280;7748;52.474;13.454;2022-09-09T09:23:55;58734.78;;;-145.20;100.00
15294;BME280;7748;52.474;13.454;2022-09-09T09:26:26;58734.78;;;-145.20;100.00
15294;BME280;7748;52.474;13.454;2022-09-09T09:28:56;58734.78;;;-145.20;100.00
15294;BME280;7748;52.474;13.454;2022-09-09T09:31:29;58734.78;;;-145.20;100.00
15294;BME280;7748;52.474;13.454;2022-09-09T09:33:58;58734.78;;;-145.20;100.00
15294;BME280;7748;52.474;13.454;2022-09-09T09:36:38;58734.78;;;-145.20;100.00
15294;BME280;7748;52.474;13.454;2022-09-09T09:39:07;58734.78;;;-145.20;100.00
15294;BME280;7748;52.474;13.454;2022-09-09T09:41:56;58734.78;;;-145.20;100.00
15294;BME280;7748;52.474;13.454;2022-09-09T09:44:32;58734.78;;;-145.20;100.00
15294;BME280;7748;52.474;13.454;2022-09-09T09:47:07;58734.78;;;-145.20;100.00
15294;BME280;7748;52.474;13.454;2022-09-09T09:49:36;58734.78;;;-145.20;100.00
15294;BME280;7748;52.474;13.454;2022-09-09T09:52:06;58734.78;;;-145.20;100.00
15294;BME280;7748;52.474;13.454;2022-09-09T09:54:38;58734.78;;;-145.20;100.00
15294;BME280;7748;52.474;13.454;2022-09-09T09:57:10;58734.78;;;-145.20;100.00
15294;BME280;7748;52.474;13.454;2022-09-09T09:59:38;58734.78;;;-145.20;100.00
15294;BME280;7748;52.474;13.454;2022-09-09T10:02:15;58734.78;;;-145.20;100.00
15294;BME280;7748;52.474;13.454;2022-09-09T10:04:43;58734.78;;;-145.20;100.00
15294;BME280;7748;52.474;13.454;2022-09-09T10:07:18;58734.78;;;-145.20;100.00
15294;BME280;7748;52.474;13.454;2022-09-09T10:09:48;58734.78;;;-145.20;100.00
15294;BME280;7748;52.474;13.454;2022-09-09T10:12:27;58734.78;;;-145.20;100.00
15294;BME280;7748;52.474;13.454;2022-09-09T10:15:02;58734.78;;;-145.20;100.00
15294;BME280;7748;52.474;13.454;2022-09-09T10:17:42;58734.78;;;-145.20;100.00
15294;BME280;7748;52.474;13.454;2022-09-09T10:20:26;58734.78;;;-145.20;100.00
15294;BME280;7748;52.474;13.454;2022-09-09T10:23:10;58734.78;;;-145.20;100.00
15294;BME280;7748;52.474;13.454;2022-09-09T10:25:59;58734.78;;;-145.20;100.00
15294;BME280;7748;52.474;13.454;2022-09-09T10:28:51;58734.78;;;-145.20;100.00
15294;BME280;7748;52.474;13.454;2022-09-09T10:31:31;58734.78;;;-145.20;100.00
15294;BME280;7748;52.474;13.454;2022-09-09T10:34:15;58734.78;;;-145.20;100.00
15294;BME280;7748;52.474;13.454;2022-09-09T10:36:47;58734.78;;;-145.20;100.00
15294;BME280;7748;52.474;13.454;2022-09-09T10:39:31;58734.78;;;-145.20;100.00
15294;BME280;7748;52.474;13.454;2022-09-09T10:42:09;58734.78;;;-145.20;100.00
15294;BME280;7748;52.474;13.454;2022-09-09T10:44:50;58734.78;;;-145.20;100.00
15294;BME280;7748;52.474;13.454;2022-09-09T10:47:35;58734.78;;;-145.20;100.00
15294;BME280;7748;52.474;13.454;2022-09-09T10:50:23;58734.78;;;-145.20;100.00
15294;BME280;7748;52.474;13.454;2022-09-09T10:53:18;58734.78;;;-145.20;100.00
15294;BME280;7748;52.474;13.454;2022-09-09T10:55:55;58734.78;;;-145.20;100.00
15294;BME280;7748;52.474;13.454;2022-09-09T10:58:28;58734.78;;;-145.20;100.00
15294;BME280;7748;52.474;13.454;2022-09-09T11:01:03;58734.78;;;-145.20;100.00
15294;BME280;7748;52.474;13.454;2022-09-09T11:03:37;58734.78;;;-145.20;100.00
15294;BME280;7748;52.474;13.454;2022-09-09T11:06:13;58734.78;;;-145.20;100.00
15294;BME280;7748;52.474;13.454;2022-09-09T11:08:42;58734.78;;;-145.20;100.00
15294;BME280;7748;52.474;13.454;2022-09-09T11:11:14;58734.78;;;-145.20;100.00
15294;BME280;7748;52.474;13.454;2022-09-09T11:13:47;58734.78;;;-145.20;100.00
15294;BME280;7748;52.474;13.454;2022-09-09T11:16:23;58734.78;;;-145.20;100.00
15294;BME280;7748;52.474;13.454;2022-09-09T11:18:57;58734.78;;;-145.20;100.00
15294;BME280;7748;52.474;13.454;2022-09-09T11:21:29;58734.78;;;-145.20;100.00
15294;BME280;7748;52.474;13.454;2022-09-09T11:24:02;58734.78;;;-145.20;100.00
15294;BME280;7748;52.474;13.454;2022-09-09T11:26:37;58734.78;;;-145.20;100.00
15294;BME280;7748;52.474;13.454;2022-09-09T11:29:22;58734.78;;;-145.20;100.00
15294;BME280;7748;52.474;13.454;2022-09-09T11:32:03;58734.78;;;-145.20;100.00
15294;BME280;7748;52.474;13.454;2022-09-09T11:34:44;58734.78;;;-145.20;100.00
15294;BME280;7748;52.474;13.454;2022-09-09T11:40:18;58734.78;;;-145.20;100.00
15294;BME280;7748;52.474;13.454;2022-09-09T11:42:48;58734.78;;;-145.20;100.00
15294;BME280;7748;52.474;13.454;2022-09-09T11:45:23;58734.78;;;-145.20;100.00
15294;BME280;7748;52.474;13.454;2022-09-09T11:47:53;58734.78;;;-145.20;100.00
15294;BME280;7748;52.474;13.454;2022-09-09T11:50:30;58734.78;;;-145.20;100.00
15294;BME280;7748;52.474;13.454;2022-09-09T11:53:18;58734.78;;;-145.20;100.00
15294;BME280;7748;52.474;13.454;2022-09-09T11:56:04;58734.78;;;-145.20;100.00
15294;BME280;7748;52.474;13.454;2022-09-09T11:58:38;58734.78;;;-145.20;100.00
15294;BME280;7748;52.474;13.454;2022-09-09T12:04:17;58734.78;;;-145.20;100.00
15294;BME280;7748;52.474;13.454;2022-09-09T12:06:52;58734.78;;;-145.20;100.00
15294;BME280;7748;52.474;13.454;2022-09-09T12:12:29;58734.78;;;-145.20;100.00
15294;BME280;7748;52.474;13.454;2022-09-09T12:15:16;58734.78;;;-145.20;100.00
15294;BME280;7748;52.474;13.454;2022-09-09T12:17:48;58734.78;;;-145.20;100.00
15294;BME280;7748;52.474;13.454;2022-09-09T12:20:19;58734.78;;;-145.20;100.00
15294;BME280;7748;52.474;13.454;2022-09-09T12:23:14;58734.78;;;-145.20;100.00
15294;BME280;7748;52.474;13.454;2022-09-09T12:25:52;58734.78;;;-145.20;100.00
15294;BME280;7748;52.474;13.454;2022-09-09T12:28:26;58734.78;;;-145.20;100.00
15294;BME280;7748;52.474;13.454;2022-09-09T12:31:02;58734.78;;;-145.20;100.00
15294;BME280;7748;52.474;13.454;2022-09-09T12:33:36;58734.78;;;-145.20;100.00
15294;BME280;7748;52.474;13.454;2022-09-09T12:36:11;58734.78;;;-145.20;100.00
15294;BME280;7748;52.474;13.454;2022-09-09T12:38:41;58734.78;;;-145.20;100.00
15294;BME280;7748;52.474;13.454;2022-09-09T12:41:18;58734.78;;;-145.20;100.00
15294;BME280;7748;52.474;13.454;2022-09-09T12:43:47;58734.78;;;-145.20;100.00
15294;BME280;7748;52.474;13.454;2022-09-09T12:46:26;58734.78;;;-145.20;100.00
15294;BME280;7748;52.474;13.454;2022-09-09T12:48:58;58734.78;;;-145.20;100.00
15294;BME280;7748;52.474;13.454;2022-09-09T12:51:28;58734.78;;;-145.20;100.00
15294;BME280;7748;52.474;13.454;2022-09-09T12:53:59;58734.78;;;-145.20;100.00
15294;BME280;7748;52.474;13.454;2022-09-09T12:56:29;58734.78;;;-145.20;100.00
15294;BME280;7748;52.474;13.454;2022-09-09T12:58:58;58734.78;;;-145.20;100.00
15294;BME280;7748;52.474;13.454;2022-09-09T13:01:30;58734.78;;;-145.20;100.00
15294;BME280;7748;52.474;13.454;2022-09-09T13:03:59;58734.78;;;-145.20;100.00
15294;BME280;7748;52.474;13.454;2022-09-09T13:06:28;58734.78;;;-145.20;100.00
15294;BME280;7748;52.474;13.454;2022-09-09T13:08:58;58734.78;;;-145.20;100.00